Webcam Flughafen St.Gallen-Altenrhein

Live-Bilder und Zeitraffer LSZR / ACH.

 

Live aus Altenrhein
LIVE
LSZR 060320Z AUTO 26006KT 210V290 CAVOK 21/15 Q1016
Zeitraffer heute
2020-07-06 00:00:00
LSZR 052150Z AUTO VRB03KT 9999 SCT050 20/17 Q1017